sensor_id;sensor_type;location;lat;lon;timestamp;pressure;altitude;pressure_sealevel;temperature;humidity
57628;BME280;43451;49.060;10.616;2023-06-10T00:00:42;96435.00;;;14.48;100.00
57628;BME280;43451;49.060;10.616;2023-06-10T00:03:07;96430.25;;;14.32;100.00
57628;BME280;43451;49.060;10.616;2023-06-10T00:05:42;96429.06;;;14.33;100.00
57628;BME280;43451;49.060;10.616;2023-06-10T00:08:07;96432.22;;;14.31;100.00
57628;BME280;43451;49.060;10.616;2023-06-10T00:10:36;96438.88;;;14.10;100.00
57628;BME280;43451;49.060;10.616;2023-06-10T00:13:06;96437.84;;;14.04;100.00
57628;BME280;43451;49.060;10.616;2023-06-10T00:15:35;96434.84;;;13.99;100.00
57628;BME280;43451;49.060;10.616;2023-06-10T00:18:12;96433.88;;;14.09;100.00
57628;BME280;43451;49.060;10.616;2023-06-10T00:20:37;96436.03;;;13.98;100.00
57628;BME280;43451;49.060;10.616;2023-06-10T00:23:07;96432.38;;;13.84;100.00
57628;BME280;43451;49.060;10.616;2023-06-10T00:25:35;96433.22;;;13.81;100.00
57628;BME280;43451;49.060;10.616;2023-06-10T00:28:08;96429.28;;;13.82;100.00
57628;BME280;43451;49.060;10.616;2023-06-10T00:30:34;96441.69;;;13.87;100.00
57628;BME280;43451;49.060;10.616;2023-06-10T00:33:02;96443.25;;;13.88;100.00
57628;BME280;43451;49.060;10.616;2023-06-10T00:35:34;96433.84;;;13.89;100.00
57628;BME280;43451;49.060;10.616;2023-06-10T00:38:02;96437.09;;;13.84;100.00
57628;BME280;43451;49.060;10.616;2023-06-10T00:40:29;96435.88;;;13.85;100.00
57628;BME280;43451;49.060;10.616;2023-06-10T00:42:55;96429.28;;;13.82;100.00
57628;BME280;43451;49.060;10.616;2023-06-10T00:45:20;96425.41;;;13.83;100.00
57628;BME280;43451;49.060;10.616;2023-06-10T00:47:45;96435.56;;;13.83;100.00
57628;BME280;43451;49.060;10.616;2023-06-10T00:50:11;96426.94;;;13.84;100.00
57628;BME280;43451;49.060;10.616;2023-06-10T00:52:39;96430.34;;;13.88;100.00
57628;BME280;43451;49.060;10.616;2023-06-10T00:55:12;96429.88;;;13.93;100.00
57628;BME280;43451;49.060;10.616;2023-06-10T00:57:43;96429.88;;;13.93;100.00
57628;BME280;43451;49.060;10.616;2023-06-10T01:00:10;96430.41;;;14.05;100.00
57628;BME280;43451;49.060;10.616;2023-06-10T01:02:37;96433.56;;;14.03;100.00
57628;BME280;43451;49.060;10.616;2023-06-10T01:05:07;96424.47;;;13.90;100.00
57628;BME280;43451;49.060;10.616;2023-06-10T01:10:24;96434.13;;;13.55;100.00
57628;BME280;43451;49.060;10.616;2023-06-10T01:13:03;96428.00;;;13.47;100.00
57628;BME280;43451;49.060;10.616;2023-06-10T01:15:33;96432.34;;;13.44;100.00
57628;BME280;43451;49.060;10.616;2023-06-10T01:18:04;96427.84;;;13.34;100.00
57628;BME280;43451;49.060;10.616;2023-06-10T01:20:37;96434.19;;;13.28;100.00
57628;BME280;43451;49.060;10.616;2023-06-10T01:23:13;96436.97;;;13.24;100.00
57628;BME280;43451;49.060;10.616;2023-06-10T01:25:51;96423.22;;;13.31;100.00
57628;BME280;43451;49.060;10.616;2023-06-10T01:34:14;96431.28;;;13.38;100.00
57628;BME280;43451;49.060;10.616;2023-06-10T01:36:46;96433.97;;;13.42;100.00
57628;BME280;43451;49.060;10.616;2023-06-10T01:39:17;96428.78;;;13.47;100.00
57628;BME280;43451;49.060;10.616;2023-06-10T01:41:45;96429.91;;;13.50;100.00
57628;BME280;43451;49.060;10.616;2023-06-10T01:44:11;96436.91;;;13.51;100.00
57628;BME280;43451;49.060;10.616;2023-06-10T01:46:37;96437.03;;;13.44;100.00
57628;BME280;43451;49.060;10.616;2023-06-10T01:49:03;96433.16;;;13.41;100.00
57628;BME280;43451;49.060;10.616;2023-06-10T01:51:33;96432.34;;;13.44;100.00
57628;BME280;43451;49.060;10.616;2023-06-10T01:53:59;96431.16;;;13.45;100.00
57628;BME280;43451;49.060;10.616;2023-06-10T01:56:27;96435.72;;;13.52;100.00
57628;BME280;43451;49.060;10.616;2023-06-10T01:58:54;96432.59;;;13.30;100.00
57628;BME280;43451;49.060;10.616;2023-06-10T02:01:24;96430.44;;;13.18;100.00
57628;BME280;43451;49.060;10.616;2023-06-10T02:03:56;96425.69;;;12.98;100.00
57628;BME280;43451;49.060;10.616;2023-06-10T02:06:25;96437.06;;;12.93;100.00
57628;BME280;43451;49.060;10.616;2023-06-10T02:08:54;96436.66;;;12.95;100.00
57628;BME280;43451;49.060;10.616;2023-06-10T02:11:22;96439.25;;;13.02;100.00
57628;BME280;43451;49.060;10.616;2023-06-10T02:13:47;96441.53;;;13.07;100.00
57628;BME280;43451;49.060;10.616;2023-06-10T02:16:17;96437.66;;;13.05;100.00
57628;BME280;43451;49.060;10.616;2023-06-10T02:18:48;96432.47;;;13.14;100.00
57628;BME280;43451;49.060;10.616;2023-06-10T02:21:25;96438.81;;;13.07;100.00
57628;BME280;43451;49.060;10.616;2023-06-10T02:23:51;96429.13;;;13.02;100.00
57628;BME280;43451;49.060;10.616;2023-06-10T02:26:30;96432.09;;;13.12;100.00
57628;BME280;43451;49.060;10.616;2023-06-10T02:28:58;96433.28;;;13.11;100.00
57628;BME280;43451;49.060;10.616;2023-06-10T02:31:29;96434.06;;;13.11;100.00
57628;BME280;43451;49.060;10.616;2023-06-10T02:33:59;96426.47;;;13.22;100.00
57628;BME280;43451;49.060;10.616;2023-06-10T02:36:32;96425.09;;;13.34;100.00
57628;BME280;43451;49.060;10.616;2023-06-10T02:39:02;96426.25;;;13.37;100.00
57628;BME280;43451;49.060;10.616;2023-06-10T02:41:30;96424.81;;;13.29;100.00
57628;BME280;43451;49.060;10.616;2023-06-10T02:43:56;96432.47;;;13.37;100.00
57628;BME280;43451;49.060;10.616;2023-06-10T02:46:26;96430.09;;;13.39;100.00
57628;BME280;43451;49.060;10.616;2023-06-10T02:48:59;96431.28;;;13.38;100.00
57628;BME280;43451;49.060;10.616;2023-06-10T02:51:25;96434.56;;;13.30;100.00
57628;BME280;43451;49.060;10.616;2023-06-10T02:54:02;96433.38;;;13.31;100.00
57628;BME280;43451;49.060;10.616;2023-06-10T02:56:29;96431.91;;;13.26;100.00
57628;BME280;43451;49.060;10.616;2023-06-10T02:58:59;96431.63;;;13.17;100.00
57628;BME280;43451;49.060;10.616;2023-06-10T03:01:33;96429.78;;;13.10;100.00
57628;BME280;43451;49.060;10.616;2023-06-10T03:04:04;96429.00;;;13.10;100.00
57628;BME280;43451;49.060;10.616;2023-06-10T03:06:36;96432.16;;;13.08;100.00
57628;BME280;43451;49.060;10.616;2023-06-10T03:09:03;96427.53;;;13.05;100.00
57628;BME280;43451;49.060;10.616;2023-06-10T03:11:33;96426.69;;;13.08;100.00
57628;BME280;43451;49.060;10.616;2023-06-10T03:13:59;96431.38;;;13.08;100.00
57628;BME280;43451;49.060;10.616;2023-06-10T03:16:24;96434.81;;;13.12;100.00
57628;BME280;43451;49.060;10.616;2023-06-10T03:18:53;96433.22;;;13.14;100.00
57628;BME280;43451;49.060;10.616;2023-06-10T03:21:19;96446.69;;;13.25;100.00
57628;BME280;43451;49.060;10.616;2023-06-10T03:23:54;96440.47;;;13.24;100.00
57628;BME280;43451;49.060;10.616;2023-06-10T03:26:28;96440.41;;;13.28;100.00
57628;BME280;43451;49.060;10.616;2023-06-10T03:28:54;96451.44;;;13.21;100.00
57628;BME280;43451;49.060;10.616;2023-06-10T03:31:19;96450.00;;;13.13;100.00
57628;BME280;43451;49.060;10.616;2023-06-10T03:33:49;96450.22;;;12.98;100.00
57628;BME280;43451;49.060;10.616;2023-06-10T03:36:19;96448.38;;;12.92;100.00
57628;BME280;43451;49.060;10.616;2023-06-10T03:38:46;96450.28;;;12.95;100.00
57628;BME280;43451;49.060;10.616;2023-06-10T03:41:13;96456.38;;;13.02;100.00
57628;BME280;43451;49.060;10.616;2023-06-10T03:43:38;96448.69;;;12.97;100.00
57628;BME280;43451;49.060;10.616;2023-06-10T03:46:05;96455.06;;;12.87;100.00
57628;BME280;43451;49.060;10.616;2023-06-10T03:48:31;96453.97;;;12.85;100.00
57628;BME280;43451;49.060;10.616;2023-06-10T03:50:56;96453.84;;;12.92;100.00
57628;BME280;43451;49.060;10.616;2023-06-10T03:53:21;96451.13;;;12.92;100.00
57628;BME280;43451;49.060;10.616;2023-06-10T03:55:48;96458.22;;;12.86;100.00
57628;BME280;43451;49.060;10.616;2023-06-10T03:58:18;96459.09;;;12.79;100.00
57628;BME280;43451;49.060;10.616;2023-06-10T04:01:00;96457.97;;;12.76;100.00
57628;BME280;43451;49.060;10.616;2023-06-10T04:03:25;96463.34;;;12.80;100.00
57628;BME280;43451;49.060;10.616;2023-06-10T04:05:53;96456.69;;;12.85;100.00
57628;BME280;43451;49.060;10.616;2023-06-10T04:08:29;96457.78;;;12.87;100.00
57628;BME280;43451;49.060;10.616;2023-06-10T04:10:59;96453.41;;;12.93;100.00
57628;BME280;43451;49.060;10.616;2023-06-10T04:13:26;96456.38;;;13.02;100.00
57628;BME280;43451;49.060;10.616;2023-06-10T04:15:54;96455.56;;;13.06;100.00
57628;BME280;43451;49.060;10.616;2023-06-10T04:18:30;96463.16;;;13.18;100.00
57628;BME280;43451;49.060;10.616;2023-06-10T04:20:56;96467.41;;;13.22;100.00
57628;BME280;43451;49.060;10.616;2023-06-10T04:23:22;96459.75;;;13.37;100.00
57628;BME280;43451;49.060;10.616;2023-06-10T04:25:47;96457.50;;;13.56;100.00
57628;BME280;43451;49.060;10.616;2023-06-10T04:28:15;96469.84;;;13.40;100.00
57628;BME280;43451;49.060;10.616;2023-06-10T04:30:43;96462.81;;;13.63;100.00
57628;BME280;43451;49.060;10.616;2023-06-10T04:33:12;96469.69;;;13.71;100.00
57628;BME280;43451;49.060;10.616;2023-06-10T04:36:03;96470.63;;;13.84;100.00
57628;BME280;43451;49.060;10.616;2023-06-10T04:38:31;96467.13;;;14.04;100.00
57628;BME280;43451;49.060;10.616;2023-06-10T04:41:03;96462.41;;;14.04;100.00
57628;BME280;43451;49.060;10.616;2023-06-10T04:43:29;96461.50;;;14.11;100.00
57628;BME280;43451;49.060;10.616;2023-06-10T04:46:14;96470.00;;;14.16;100.00
57628;BME280;43451;49.060;10.616;2023-06-10T04:48:43;96468.59;;;14.28;100.00
57628;BME280;43451;49.060;10.616;2023-06-10T04:51:15;96467.78;;;14.48;100.00
57628;BME280;43451;49.060;10.616;2023-06-10T04:53:53;96467.44;;;14.46;100.00
57628;BME280;43451;49.060;10.616;2023-06-10T04:56:19;96474.72;;;14.72;100.00
57628;BME280;43451;49.060;10.616;2023-06-10T04:58:45;96474.00;;;14.68;100.00
57628;BME280;43451;49.060;10.616;2023-06-10T05:01:10;96472.59;;;14.80;100.00
57628;BME280;43451;49.060;10.616;2023-06-10T05:03:36;96477.56;;;15.01;100.00
57628;BME280;43451;49.060;10.616;2023-06-10T05:06:02;96468.16;;;15.19;100.00
57628;BME280;43451;49.060;10.616;2023-06-10T05:08:38;96480.91;;;15.25;100.00
57628;BME280;43451;49.060;10.616;2023-06-10T05:11:12;96475.59;;;15.18;100.00
57628;BME280;43451;49.060;10.616;2023-06-10T05:13:37;96479.47;;;15.21;100.00
57628;BME280;43451;49.060;10.616;2023-06-10T05:16:03;96470.66;;;15.29;100.00
57628;BME280;43451;49.060;10.616;2023-06-10T05:18:33;96473.56;;;15.39;100.00
57628;BME280;43451;49.060;10.616;2023-06-10T05:20:58;96478.16;;;15.58;100.00
57628;BME280;43451;49.060;10.616;2023-06-10T05:23:24;96474.91;;;15.80;100.00
57628;BME280;43451;49.060;10.616;2023-06-10T05:25:49;96475.66;;;15.80;100.00
57628;BME280;43451;49.060;10.616;2023-06-10T05:28:17;96474.41;;;15.97;100.00
57628;BME280;43451;49.060;10.616;2023-06-10T05:30:43;96478.25;;;16.00;100.00
57628;BME280;43451;49.060;10.616;2023-06-10T05:33:09;96473.38;;;16.20;100.00
57628;BME280;43451;49.060;10.616;2023-06-10T05:35:34;96473.81;;;16.74;100.00
57628;BME280;43451;49.060;10.616;2023-06-10T05:38:02;96473.41;;;17.13;100.00
57628;BME280;43451;49.060;10.616;2023-06-10T05:40:27;96492.31;;;17.59;100.00
57628;BME280;43451;49.060;10.616;2023-06-10T05:42:56;96482.81;;;18.07;100.00
57628;BME280;43451;49.060;10.616;2023-06-10T05:45:21;96483.50;;;18.33;100.00
57628;BME280;43451;49.060;10.616;2023-06-10T05:47:47;96479.06;;;18.67;96.61
57628;BME280;43451;49.060;10.616;2023-06-10T05:50:13;96480.41;;;19.16;92.09
57628;BME280;43451;49.060;10.616;2023-06-10T05:52:39;96484.75;;;19.44;88.31
57628;BME280;43451;49.060;10.616;2023-06-10T05:55:06;96480.16;;;19.60;90.36
57628;BME280;43451;49.060;10.616;2023-06-10T05:57:31;96481.78;;;19.79;85.31
57628;BME280;43451;49.060;10.616;2023-06-10T05:59:57;96484.53;;;19.98;85.50
57628;BME280;43451;49.060;10.616;2023-06-10T06:02:23;96479.31;;;20.18;84.17
57628;BME280;43451;49.060;10.616;2023-06-10T06:04:49;96481.41;;;20.51;80.95
57628;BME280;43451;49.060;10.616;2023-06-10T06:07:14;96483.28;;;20.17;83.63
57628;BME280;43451;49.060;10.616;2023-06-10T06:09:40;96477.16;;;20.31;83.48
57628;BME280;43451;49.060;10.616;2023-06-10T06:12:06;96482.03;;;20.55;82.74
57628;BME280;43451;49.060;10.616;2023-06-10T06:14:33;96477.13;;;20.68;82.14
57628;BME280;43451;49.060;10.616;2023-06-10T06:17:02;96483.22;;;20.72;83.17
57628;BME280;43451;49.060;10.616;2023-06-10T06:19:28;96485.38;;;20.77;81.58
57628;BME280;43451;49.060;10.616;2023-06-10T06:21:53;96474.47;;;20.74;81.54
57628;BME280;43451;49.060;10.616;2023-06-10T06:24:19;96483.19;;;20.91;79.64
57628;BME280;43451;49.060;10.616;2023-06-10T06:26:45;96477.03;;;20.86;79.78
57628;BME280;43451;49.060;10.616;2023-06-10T06:29:10;96474.28;;;20.86;79.33
57628;BME280;43451;49.060;10.616;2023-06-10T06:31:36;96480.72;;;20.83;80.79
57628;BME280;43451;49.060;10.616;2023-06-10T06:34:02;96475.84;;;20.78;81.99
57628;BME280;43451;49.060;10.616;2023-06-10T06:36:27;96482.78;;;20.64;80.16
57628;BME280;43451;49.060;10.616;2023-06-10T06:38:53;96471.78;;;20.46;83.38
57628;BME280;43451;49.060;10.616;2023-06-10T06:41:18;96477.47;;;20.33;84.84
57628;BME280;43451;49.060;10.616;2023-06-10T06:43:44;96484.84;;;20.18;86.15
57628;BME280;43451;49.060;10.616;2023-06-10T06:46:10;96480.84;;;20.01;86.11
57628;BME280;43451;49.060;10.616;2023-06-10T06:48:35;96484.84;;;20.09;84.53
57628;BME280;43451;49.060;10.616;2023-06-10T06:51:01;96488.06;;;19.98;87.56
57628;BME280;43451;49.060;10.616;2023-06-10T06:53:27;96496.47;;;20.04;85.73
57628;BME280;43451;49.060;10.616;2023-06-10T06:55:53;96486.69;;;19.93;88.39
57628;BME280;43451;49.060;10.616;2023-06-10T06:58:19;96496.63;;;20.09;86.95
57628;BME280;43451;49.060;10.616;2023-06-10T07:00:44;96495.09;;;20.17;84.51
57628;BME280;43451;49.060;10.616;2023-06-10T07:03:10;96499.53;;;20.15;83.58
57628;BME280;43451;49.060;10.616;2023-06-10T07:05:35;96496.47;;;20.22;85.25
57628;BME280;43451;49.060;10.616;2023-06-10T07:08:01;96503.22;;;20.21;83.89
57628;BME280;43451;49.060;10.616;2023-06-10T07:10:28;96502.47;;;20.11;84.54
57628;BME280;43451;49.060;10.616;2023-06-10T07:12:54;96504.44;;;20.20;85.75
57628;BME280;43451;49.060;10.616;2023-06-10T07:15:20;96504.59;;;20.35;86.21
57628;BME280;43451;49.060;10.616;2023-06-10T07:17:45;96502.59;;;20.35;85.20
57628;BME280;43451;49.060;10.616;2023-06-10T07:20:11;96510.84;;;20.45;82.20
57628;BME280;43451;49.060;10.616;2023-06-10T07:22:37;96510.09;;;20.53;85.73
57628;BME280;43451;49.060;10.616;2023-06-10T07:25:06;96508.69;;;20.67;84.12
57628;BME280;43451;49.060;10.616;2023-06-10T07:27:31;96513.59;;;20.72;79.25
57628;BME280;43451;49.060;10.616;2023-06-10T07:29:57;96503.47;;;20.69;79.29
57628;BME280;43451;49.060;10.616;2023-06-10T07:32:22;96502.88;;;20.74;81.81
57628;BME280;43451;49.060;10.616;2023-06-10T07:34:49;96506.38;;;20.84;84.82
57628;BME280;43451;49.060;10.616;2023-06-10T07:37:16;96502.19;;;20.89;78.87
57628;BME280;43451;49.060;10.616;2023-06-10T07:39:41;96499.59;;;20.85;78.59
57628;BME280;43451;49.060;10.616;2023-06-10T07:42:08;96487.59;;;20.97;77.26
57628;BME280;43451;49.060;10.616;2023-06-10T07:44:34;96492.19;;;21.00;77.64
57628;BME280;43451;49.060;10.616;2023-06-10T07:46:59;96493.19;;;21.12;81.28
57628;BME280;43451;49.060;10.616;2023-06-10T07:49:25;96483.81;;;21.19;78.08
57628;BME280;43451;49.060;10.616;2023-06-10T07:51:51;96481.66;;;21.23;76.28
57628;BME280;43451;49.060;10.616;2023-06-10T07:54:16;96483.59;;;21.31;77.16
57628;BME280;43451;49.060;10.616;2023-06-10T07:56:42;96485.06;;;21.51;77.29
57628;BME280;43451;49.060;10.616;2023-06-10T07:59:07;96485.16;;;21.56;73.18
57628;BME280;43451;49.060;10.616;2023-06-10T08:01:33;96478.22;;;21.61;72.55
57628;BME280;43451;49.060;10.616;2023-06-10T08:04:01;96484.78;;;21.88;71.80
57628;BME280;43451;49.060;10.616;2023-06-10T08:06:27;96484.97;;;21.84;67.95
57628;BME280;43451;49.060;10.616;2023-06-10T08:08:52;96479.44;;;21.84;70.39
57628;BME280;43451;49.060;10.616;2023-06-10T08:11:18;96483.41;;;21.92;65.97
57628;BME280;43451;49.060;10.616;2023-06-10T08:13:43;96486.69;;;21.82;64.31
57628;BME280;43451;49.060;10.616;2023-06-10T08:16:09;96476.97;;;21.86;64.72
57628;BME280;43451;49.060;10.616;2023-06-10T08:18:35;96475.09;;;21.92;68.20
57628;BME280;43451;49.060;10.616;2023-06-10T08:21:00;96480.44;;;21.96;69.16
57628;BME280;43451;49.060;10.616;2023-06-10T08:23:26;96479.88;;;21.92;67.17
57628;BME280;43451;49.060;10.616;2023-06-10T08:25:52;96487.38;;;21.91;66.33
57628;BME280;43451;49.060;10.616;2023-06-10T08:28:18;96487.78;;;21.99;66.28
57628;BME280;43451;49.060;10.616;2023-06-10T08:30:44;96489.06;;;22.13;66.73
57628;BME280;43451;49.060;10.616;2023-06-10T08:33:10;96485.88;;;22.29;65.71
57628;BME280;43451;49.060;10.616;2023-06-10T08:35:35;96479.94;;;22.21;61.79
57628;BME280;43451;49.060;10.616;2023-06-10T08:38:01;96487.88;;;22.29;62.10
57628;BME280;43451;49.060;10.616;2023-06-10T08:40:26;96483.78;;;22.39;63.42
57628;BME280;43451;49.060;10.616;2023-06-10T08:43:05;96486.28;;;22.37;63.42
57628;BME280;43451;49.060;10.616;2023-06-10T08:45:35;96488.94;;;22.31;61.39
57628;BME280;43451;49.060;10.616;2023-06-10T08:48:03;96485.28;;;22.25;63.92
57628;BME280;43451;49.060;10.616;2023-06-10T08:50:36;96485.50;;;22.36;63.69
57628;BME280;43451;49.060;10.616;2023-06-10T08:53:04;96483.78;;;22.39;65.30
57628;BME280;43451;49.060;10.616;2023-06-10T08:55:32;96484.28;;;22.52;61.07
57628;BME280;43451;49.060;10.616;2023-06-10T08:58:03;96476.53;;;22.56;62.07
57628;BME280;43451;49.060;10.616;2023-06-10T09:00:31;96473.28;;;22.73;62.50
57628;BME280;43451;49.060;10.616;2023-06-10T09:02:58;96467.28;;;22.74;61.31
57628;BME280;43451;49.060;10.616;2023-06-10T09:05:24;96473.09;;;22.76;65.11
57628;BME280;43451;49.060;10.616;2023-06-10T09:07:52;96475.94;;;22.82;63.59
57628;BME280;43451;49.060;10.616;2023-06-10T09:10:17;96466.59;;;22.94;64.90
57628;BME280;43451;49.060;10.616;2023-06-10T09:12:43;96464.19;;;23.02;59.16
57628;BME280;43451;49.060;10.616;2023-06-10T09:15:09;96471.19;;;22.97;59.89
57628;BME280;43451;49.060;10.616;2023-06-10T09:17:37;96465.69;;;23.17;59.62
57628;BME280;43451;49.060;10.616;2023-06-10T09:20:09;96458.84;;;23.13;59.32
57628;BME280;43451;49.060;10.616;2023-06-10T09:22:35;96466.34;;;23.27;61.18
57628;BME280;43451;49.060;10.616;2023-06-10T09:25:09;96461.78;;;23.45;60.64
57628;BME280;43451;49.060;10.616;2023-06-10T09:27:49;96460.50;;;23.60;56.29
57628;BME280;43451;49.060;10.616;2023-06-10T09:30:32;96454.84;;;23.70;58.98
57628;BME280;43451;49.060;10.616;2023-06-10T09:33:01;96454.06;;;23.69;55.49
57628;BME280;43451;49.060;10.616;2023-06-10T09:35:28;96452.59;;;23.74;58.04
57628;BME280;43451;49.060;10.616;2023-06-10T09:37:56;96461.75;;;23.80;57.42
57628;BME280;43451;49.060;10.616;2023-06-10T09:40:22;96453.41;;;24.00;55.63
57628;BME280;43451;49.060;10.616;2023-06-10T09:42:56;96466.91;;;24.13;55.49
57628;BME280;43451;49.060;10.616;2023-06-10T09:45:23;96466.28;;;24.24;55.66
57628;BME280;43451;49.060;10.616;2023-06-10T09:47:55;96466.81;;;24.28;53.45
57628;BME280;43451;49.060;10.616;2023-06-10T09:50:21;96474.00;;;24.14;53.38
57628;BME280;43451;49.060;10.616;2023-06-10T09:52:47;96474.00;;;24.14;55.74
57628;BME280;43451;49.060;10.616;2023-06-10T09:55:14;96474.84;;;24.20;55.77
57628;BME280;43451;49.060;10.616;2023-06-10T09:57:40;96473.56;;;24.21;53.95
57628;BME280;43451;49.060;10.616;2023-06-10T10:00:10;96467.13;;;24.30;53.40
57628;BME280;43451;49.060;10.616;2023-06-10T10:02:50;96472.69;;;24.36;54.17
57628;BME280;43451;49.060;10.616;2023-06-10T10:05:18;96464.13;;;24.33;52.36
57628;BME280;43451;49.060;10.616;2023-06-10T10:07:45;96474.47;;;24.33;52.54
57628;BME280;43451;49.060;10.616;2023-06-10T10:10:12;96465.03;;;24.25;52.97
57628;BME280;43451;49.060;10.616;2023-06-10T10:12:39;96464.66;;;24.12;53.15
57628;BME280;43451;49.060;10.616;2023-06-10T10:15:10;96455.19;;;24.24;54.99
57628;BME280;43451;49.060;10.616;2023-06-10T10:17:40;96465.50;;;24.44;56.00
57628;BME280;43451;49.060;10.616;2023-06-10T10:20:08;96460.28;;;24.31;55.63
57628;BME280;43451;49.060;10.616;2023-06-10T10:22:42;96462.25;;;24.25;55.21
57628;BME280;43451;49.060;10.616;2023-06-10T10:25:15;96470.75;;;24.16;54.38
57628;BME280;43451;49.060;10.616;2023-06-10T10:27:48;96463.63;;;23.89;55.32
57628;BME280;43451;49.060;10.616;2023-06-10T10:30:14;96464.66;;;23.91;56.42
57628;BME280;43451;49.060;10.616;2023-06-10T10:33:05;96466.91;;;24.13;56.15
57628;BME280;43451;49.060;10.616;2023-06-10T10:35:33;96472.09;;;24.26;55.04
57628;BME280;43451;49.060;10.616;2023-06-10T10:37:58;96471.94;;;24.35;53.83
57628;BME280;43451;49.060;10.616;2023-06-10T10:40:26;96462.28;;;24.51;51.32
57628;BME280;43451;49.060;10.616;2023-06-10T10:42:56;96464.66;;;24.64;52.58
57628;BME280;43451;49.060;10.616;2023-06-10T10:45:22;96453.31;;;24.62;54.15
57628;BME280;43451;49.060;10.616;2023-06-10T10:47:52;96451.28;;;24.62;52.60
57628;BME280;43451;49.060;10.616;2023-06-10T10:50:19;96463.59;;;24.55;52.97
57628;BME280;43451;49.060;10.616;2023-06-10T10:52:55;96462.69;;;24.70;50.78
57628;BME280;43451;49.060;10.616;2023-06-10T10:55:23;96461.63;;;24.62;52.01
57628;BME280;43451;49.060;10.616;2023-06-10T11:00:34;96465.06;;;24.77;52.54
57628;BME280;43451;49.060;10.616;2023-06-10T11:05:40;96453.13;;;24.71;52.01
57628;BME280;43451;49.060;10.616;2023-06-10T11:08:08;96457.06;;;24.90;49.38
57628;BME280;43451;49.060;10.616;2023-06-10T11:10:36;96449.88;;;25.10;51.52
57628;BME280;43451;49.060;10.616;2023-06-10T11:13:12;96458.97;;;25.10;51.55
57628;BME280;43451;49.060;10.616;2023-06-10T11:15:43;96459.47;;;25.09;51.14
57628;BME280;43451;49.060;10.616;2023-06-10T11:18:22;96459.38;;;24.97;52.12
57628;BME280;43451;49.060;10.616;2023-06-10T11:23:35;96463.34;;;24.85;50.86
57628;BME280;43451;49.060;10.616;2023-06-10T11:34:06;96475.75;;;24.38;52.56
57628;BME280;43451;49.060;10.616;2023-06-10T11:36:34;96464.34;;;24.30;53.37
57628;BME280;43451;49.060;10.616;2023-06-10T11:39:05;96465.69;;;24.40;55.66
57628;BME280;43451;49.060;10.616;2023-06-10T11:41:32;96463.03;;;24.51;58.03
57628;BME280;43451;49.060;10.616;2023-06-10T11:44:03;96464.25;;;24.71;56.96
57628;BME280;43451;49.060;10.616;2023-06-10T11:46:30;96459.22;;;24.75;53.50
57628;BME280;43451;49.060;10.616;2023-06-10T11:48:58;96458.69;;;24.71;54.29
57628;BME280;43451;49.060;10.616;2023-06-10T11:51:29;96458.56;;;24.60;52.23
57628;BME280;43451;49.060;10.616;2023-06-10T11:53:55;96455.69;;;24.80;53.78
57628;BME280;43451;49.060;10.616;2023-06-10T11:56:23;96461.72;;;24.73;52.68
57628;BME280;43451;49.060;10.616;2023-06-10T11:58:57;96463.91;;;24.63;51.43
57628;BME280;43451;49.060;10.616;2023-06-10T12:01:25;96463.00;;;24.46;53.35
57628;BME280;43451;49.060;10.616;2023-06-10T12:04:08;96471.19;;;24.61;51.74
57628;BME280;43451;49.060;10.616;2023-06-10T12:06:44;96462.63;;;24.59;54.16
57628;BME280;43451;49.060;10.616;2023-06-10T12:09:36;96464.13;;;24.60;50.68
57628;BME280;43451;49.060;10.616;2023-06-10T12:12:03;96466.22;;;24.65;53.21
57628;BME280;43451;49.060;10.616;2023-06-10T12:14:58;96452.56;;;24.67;51.22
57628;BME280;43451;49.060;10.616;2023-06-10T12:19:56;96448.41;;;24.83;52.54
57628;BME280;43451;49.060;10.616;2023-06-10T12:22:21;96452.22;;;24.85;51.32
57628;BME280;43451;49.060;10.616;2023-06-10T12:25:03;96449.78;;;24.98;49.82
57628;BME280;43451;49.060;10.616;2023-06-10T12:27:30;96438.31;;;25.17;51.79
57628;BME280;43451;49.060;10.616;2023-06-10T12:29:57;96438.13;;;25.26;50.74
57628;BME280;43451;49.060;10.616;2023-06-10T12:32:40;96437.41;;;25.31;50.98
57628;BME280;43451;49.060;10.616;2023-06-10T12:35:06;96441.97;;;25.40;51.27
57628;BME280;43451;49.060;10.616;2023-06-10T12:37:32;96440.78;;;25.52;51.03
57628;BME280;43451;49.060;10.616;2023-06-10T12:40:03;96435.28;;;25.63;49.52
57628;BME280;43451;49.060;10.616;2023-06-10T12:42:29;96426.69;;;25.67;48.47
57628;BME280;43451;49.060;10.616;2023-06-10T12:44:57;96427.41;;;25.62;49.06
57628;BME280;43451;49.060;10.616;2023-06-10T12:47:36;96419.34;;;25.75;48.97
57628;BME280;43451;49.060;10.616;2023-06-10T12:50:05;96419.34;;;25.75;47.54
57628;BME280;43451;49.060;10.616;2023-06-10T12:52:31;96430.56;;;25.86;50.00
57628;BME280;43451;49.060;10.616;2023-06-10T12:54:57;96410.34;;;25.91;48.52
57628;BME280;43451;49.060;10.616;2023-06-10T12:57:24;96419.00;;;26.16;48.01
57628;BME280;43451;49.060;10.616;2023-06-10T12:59:50;96417.44;;;26.04;46.35
57628;BME280;43451;49.060;10.616;2023-06-10T13:02:18;96410.59;;;25.82;47.96
57628;BME280;43451;49.060;10.616;2023-06-10T13:04:46;96414.34;;;25.79;46.45
57628;BME280;43451;49.060;10.616;2023-06-10T13:07:12;96422.50;;;26.00;45.84
57628;BME280;43451;49.060;10.616;2023-06-10T13:09:37;96412.91;;;26.01;44.97
57628;BME280;43451;49.060;10.616;2023-06-10T13:12:03;96415.69;;;26.01;45.97
57628;BME280;43451;49.060;10.616;2023-06-10T13:14:29;96414.59;;;25.81;46.57
57628;BME280;43451;49.060;10.616;2023-06-10T13:16:55;96414.94;;;25.46;48.21
57628;BME280;43451;49.060;10.616;2023-06-10T13:19:21;96417.13;;;25.25;48.39